Flight Track Log - Related Links

Times and Time Zones

All times are in EDT time to prevent confusion due to time zone crossing. See the N114SP flight status page for this flight to view local times or setup timezone preferences in your user account.

Time Position Orientation Groundspeed Altitude Reporting Facility
EDT Latitude Longitude Course Direction KTS MPH feet Rate Location/Type
Fri 14:27:02 44.9667 -93.0500 319° Northwest 81 93 2,100  Level Minneapolis TRACON
Fri 14:28:02 45.0000 -93.0333 19° North 82 94 2,800 750 Climbing Minneapolis TRACON
Fri 14:29:02 45.0167 -93.0333 360° North 88 101 3,600 650 Climbing Minneapolis TRACON
Fri 14:30:02 45.0333 -93.0333 360° North 86 99 4,100 600 Climbing Minneapolis TRACON
Fri 14:31:02 45.0667 -93.0333 360° North 82 94 4,800 500 Climbing Minneapolis TRACON
Fri 14:32:00 45.0558 -93.2156 319° Northwest  Level FlightAware Approximate
Fri 14:32:02 45.0833 -93.0333 360° North 96 110 5,100  Level Minneapolis TRACON
Fri 14:33:02 45.1167 -93.0333 360° North 116 133 5,100  Level Minneapolis TRACON
Fri 14:34:02 45.1500 -93.0667 325° Northwest 127 146 5,100  Level Minneapolis TRACON
Fri 14:35:03 45.1667 -93.1000 305° West 135 155 5,100  Level Minneapolis TRACON
Fri 14:36:03 45.2000 -93.1500 313° West 134 154 5,100 298 Level Minneapolis TRACON
Fri 14:37:24 45.2181 -93.1875 304° West 103 119 5,800 417 Climbing Minneapolis Center
Fri 14:38:27 45.2344 -93.2167 309° West 96 110 6,100 144 Climbing Minneapolis Center
Fri 14:39:29 45.2558 -93.2475 315° West 110 127 6,100  Level Minneapolis Center
Fri 14:40:31 45.2800 -93.2828 314° West 122 140 6,100  Level Minneapolis Center
Fri 14:41:33 45.3047 -93.3175 315° West 125 144 6,100  Level Minneapolis Center
Fri 14:42:35 45.3292 -93.3544 313° West 126 145 6,100  Level Minneapolis Center
Fri 14:43:37 45.3583 -93.3981 314° West 127 146 6,100 -48 Level Minneapolis Center
Fri 14:44:39 45.3831 -93.4361 313° West 130 150 6,000 -44 Descending Minneapolis Center
Fri 14:45:54 45.4136 -93.4814 314° West 131 151 6,000  Level Minneapolis Center
Fri 14:46:56 45.4394 -93.5178 315° West 131 151 6,000  Level Minneapolis Center
Fri 14:47:58 45.4642 -93.5544 314° West 130 150 6,000  Level Minneapolis Center
Fri 14:49:00 45.4880 -93.5929 310° West  Level Estimated
Fri 14:50:02 45.5200 -93.6383 310° West 133 153 6,000  Level Minneapolis Center
Fri 14:51:04 45.5444 -93.6794 310° West 135 155 6,000  Level Minneapolis Center
Fri 14:52:06 45.5689 -93.7189 312° West 134 154 6,000  Level Minneapolis Center
Fri 14:53:08 45.5928 -93.7594 310° West 134 154 6,000  Level Minneapolis Center
Fri 14:54:10 45.6172 -93.7992 311° West 133 153 6,000  Level Minneapolis Center
Fri 14:55:12 45.6458 -93.8481 310° West 133 153 6,000 -242 Level Minneapolis Center
Fri 14:56:14 45.6678 -93.8778 317° Northwest 136 157 5,500 -624 Descending Minneapolis Center
Fri 14:57:17 45.7011 -93.9311 312° West 148 170 4,700 -657 Descending Minneapolis Center
Fri 14:58:31 45.7308 -93.9769 313° West 156 180 4,000 -568 Descending Minneapolis Center

Login

Don't have an account? Register now (free) for customized features, flight alerts, and more!